Ava, Ohio
Current Conditions -  °F | °C
As of 8:53 PM on Thursday 20 Nov 2014 (Local Time) from KZZV Reporting Station
Broken Clouds Broken Clouds  
Wind Chill: 15°   Ceiling: 4900
Heat Index: 23°   Visibility: 10mi
Dew Point: 13°   Wind: 7mph
Humidity: 65%   Direction: 270°W
Pressure: 30.16"   Gusts: NA
Location:  39.83°N, 81.57°W
Report Text: KZZV 210153Z AUTO 27006KT 10SM BKN049 M05/M11 A3016 RMK AO2 SLP225 T10501106
Loading
Personal Weather Stations






























Interactive Weather Map New forecast layout! Learn more

10-Day Weather Forecast

Advertisements
Track Severe Weather on mobile